createdAt,value
2022-10-04T12:10:00.949Z,21.68
2022-10-04T12:10:58.625Z,22.33
2022-10-04T12:11:58.614Z,22.70
2022-10-04T12:12:58.584Z,23.00
2022-10-04T12:13:58.578Z,22.54
2022-10-04T12:14:58.552Z,22.52
2022-10-04T12:15:58.593Z,22.42
2022-10-04T12:16:58.579Z,21.91
2022-10-04T12:17:58.505Z,21.71
2022-10-04T12:18:58.499Z,22.28
2022-10-04T12:19:58.479Z,22.52
2022-10-04T12:20:58.467Z,22.37
2022-10-04T12:21:58.444Z,22.00
2022-10-04T12:22:58.451Z,22.22
2022-10-04T12:23:58.425Z,22.21
2022-10-04T12:24:58.409Z,22.36
2022-10-04T12:25:58.397Z,22.33
2022-10-04T12:26:58.371Z,22.39
2022-10-04T12:27:58.384Z,22.88
2022-10-04T12:28:58.350Z,22.42
2022-10-04T12:29:58.325Z,22.72
2022-10-04T12:30:58.321Z,22.36
2022-10-04T12:31:58.373Z,22.17
2022-10-04T12:32:58.438Z,22.21
2022-10-04T12:33:58.267Z,22.55
2022-10-04T12:34:58.267Z,22.94
2022-10-04T12:35:58.251Z,22.95
2022-10-04T12:36:58.225Z,22.95
2022-10-04T12:37:58.233Z,23.01
2022-10-04T12:38:58.203Z,23.10
2022-10-04T12:39:58.189Z,22.98
2022-10-04T12:40:58.168Z,22.82
2022-10-04T12:41:58.167Z,22.83
2022-10-04T12:42:58.161Z,23.01
2022-10-04T12:43:58.126Z,23.10
2022-10-04T12:44:58.115Z,23.05
2022-10-04T12:45:58.270Z,22.86
2022-10-04T12:46:58.095Z,22.55
2022-10-04T12:47:58.087Z,22.57
2022-10-04T12:48:58.064Z,22.70
2022-10-04T12:49:58.046Z,23.04
2022-10-04T12:50:58.041Z,23.15
2022-10-04T12:51:58.023Z,23.23
2022-10-04T12:52:58.030Z,22.90
2022-10-04T12:53:58.946Z,22.43
2022-10-04T12:54:57.999Z,21.71
2022-10-04T12:55:57.969Z,21.88
2022-10-04T12:56:57.962Z,22.35
2022-10-04T12:57:57.949Z,22.62
2022-10-04T12:58:57.939Z,22.94
2022-10-04T12:59:57.926Z,23.10
2022-10-04T13:01:02.108Z,23.07
2022-10-04T13:01:57.949Z,23.00
2022-10-04T13:02:57.877Z,23.28
2022-10-04T13:03:57.889Z,23.10
2022-10-04T13:04:57.860Z,22.88
2022-10-04T13:05:57.851Z,22.79
2022-10-04T13:06:57.837Z,23.01
2022-10-04T13:07:57.817Z,23.01
2022-10-04T13:08:57.814Z,23.12
2022-10-04T13:10:22.460Z,23.15
2022-10-04T13:10:57.783Z,23.38
2022-10-04T13:11:57.767Z,23.38
2022-10-04T13:12:59.799Z,23.35
2022-10-04T13:13:57.754Z,23.51
2022-10-04T13:14:57.737Z,23.70
2022-10-04T13:17:57.690Z,23.68
2022-10-04T13:18:57.689Z,23.69
2022-10-04T13:19:57.674Z,23.50
2022-10-04T13:20:57.653Z,23.36
2022-10-04T13:21:57.653Z,23.33
2022-10-04T13:22:58.274Z,23.46
2022-10-04T13:23:57.644Z,23.42
2022-10-04T13:24:57.620Z,22.94
2022-10-04T13:26:02.696Z,23.09
2022-10-04T13:26:57.594Z,23.27
2022-10-04T13:27:57.624Z,23.36
2022-10-04T13:28:57.615Z,23.51
2022-10-04T13:29:57.550Z,23.35
2022-10-04T13:30:57.546Z,23.53
2022-10-04T13:31:57.585Z,23.32
2022-10-04T13:32:57.520Z,22.97
2022-10-04T13:33:57.528Z,22.92
2022-10-04T13:34:57.531Z,22.95
2022-10-04T13:35:57.478Z,22.90
2022-10-04T13:36:57.465Z,22.88
2022-10-04T13:37:57.462Z,22.85
2022-10-04T13:38:57.463Z,22.73
2022-10-04T13:39:57.440Z,22.90
2022-10-04T13:40:57.417Z,23.12
2022-10-04T13:41:57.422Z,23.20
2022-10-04T13:42:57.406Z,23.42
2022-10-04T13:43:57.408Z,23.38
2022-10-04T13:44:57.373Z,23.50
2022-10-04T13:45:57.441Z,23.73
2022-10-04T13:46:57.350Z,23.93
2022-10-04T13:47:57.344Z,23.78
2022-10-04T13:48:57.355Z,24.02
2022-10-04T13:49:57.321Z,23.84
2022-10-04T13:50:57.315Z,24.46
2022-10-04T13:51:57.301Z,24.65
2022-10-04T13:52:57.294Z,25.17
2022-10-04T13:53:57.289Z,25.57
2022-10-04T13:54:57.266Z,26.06
2022-10-04T13:55:57.264Z,26.13
2022-10-04T13:56:57.251Z,25.97
2022-10-04T13:57:57.259Z,26.01
2022-10-04T13:58:57.234Z,25.02
2022-10-04T14:09:30.714Z,25.62
2022-10-04T14:10:30.692Z,25.92
2022-10-04T14:11:30.673Z,25.94
2022-10-04T14:12:30.665Z,26.07
2022-10-04T14:13:30.659Z,25.35
2022-10-04T14:14:30.662Z,25.24
2022-10-04T14:15:30.637Z,25.70
2022-10-04T14:16:30.675Z,25.30
2022-10-04T14:17:30.614Z,25.61
2022-10-04T14:18:30.607Z,25.42
2022-10-04T14:19:30.604Z,25.35
2022-10-04T14:20:30.576Z,25.25
2022-10-04T14:21:30.574Z,25.28
2022-10-04T14:22:30.605Z,25.58
2022-10-04T14:23:30.555Z,25.65
2022-10-04T14:24:30.568Z,25.02
2022-10-04T14:25:30.581Z,25.15
2022-10-04T14:26:30.518Z,25.05
2022-10-04T14:27:30.532Z,25.35
2022-10-04T14:28:30.559Z,25.05
2022-10-04T14:29:30.489Z,25.33
2022-10-04T14:30:30.496Z,25.40
2022-10-04T14:31:36.044Z,25.69
2022-10-04T14:32:30.463Z,25.67
2022-10-04T14:33:30.452Z,25.10
2022-10-04T14:34:30.455Z,25.13
2022-10-04T14:35:30.447Z,24.39
2022-10-04T14:36:30.582Z,24.03
2022-10-04T14:37:30.423Z,23.32
2022-10-04T14:38:30.434Z,23.01
2022-10-04T14:39:30.397Z,22.57
2022-10-04T14:40:30.528Z,22.28
